Time,TemperatureF,DewpointF,PressureIn,WindDirection,WindDirectionDegrees,WindSpeedMPH,WindSpeedGustMPH,Humidity,HourlyPrecipIn,Conditions,Clouds,dailyrainin,SolarRadiationWatts/m^2,SoftwareType,DateUTC
2013-06-18 00:23:00,61.0,21.0,-100.00,North,6,7.0,9.0,21,0.00,,,0.00,0.000000,,2013-06-18 06:23:00,
2013-06-18 00:32:00,61.0,21.0,-100.00,North,6,7.0,9.0,21,0.00,,,0.00,0.000000,,2013-06-18 06:32:00,
2013-06-18 00:43:00,61.0,21.0,-100.00,North,6,7.0,9.0,21,0.00,,,0.00,0.000000,,2013-06-18 06:43:00,
2013-06-18 00:52:00,61.0,21.0,-100.00,North,6,7.0,9.0,21,0.00,,,0.00,0.000000,,2013-06-18 06:52:00,
2013-06-18 01:22:00,59.0,20.0,-100.00,NNE,16,5.0,10.0,22,0.00,,,0.00,0.000000,,2013-06-18 07:22:00,
2013-06-18 01:33:00,59.0,20.0,-100.00,NNE,16,5.0,10.0,22,0.00,,,0.00,0.000000,,2013-06-18 07:33:00,
2013-06-18 01:43:00,59.0,20.0,-100.00,NNE,16,5.0,10.0,22,0.00,,,0.00,0.000000,,2013-06-18 07:43:00,
2013-06-18 01:52:00,59.0,20.0,-100.00,NNE,16,5.0,10.0,22,0.00,,,0.00,0.000000,,2013-06-18 07:52:00,
2013-06-18 02:23:00,59.0,21.0,-100.00,NNW,348,5.0,7.0,23,0.00,,,0.00,0.000000,,2013-06-18 08:23:00,
2013-06-18 02:33:00,59.0,21.0,-100.00,NNW,348,5.0,7.0,23,0.00,,,0.00,0.000000,,2013-06-18 08:33:00,
2013-06-18 02:43:00,59.0,21.0,-100.00,NNW,348,5.0,7.0,23,0.00,,,0.00,0.000000,,2013-06-18 08:43:00,
2013-06-18 02:52:00,59.0,21.0,-100.00,NNW,348,5.0,7.0,23,0.00,,,0.00,0.000000,,2013-06-18 08:52:00,
2013-06-18 03:22:00,61.0,25.0,-100.00,NE,52,3.0,8.0,25,0.00,,,0.00,0.000000,,2013-06-18 09:22:00,
2013-06-18 03:34:00,61.0,25.0,-100.00,NE,52,3.0,8.0,25,0.00,,,0.00,0.000000,,2013-06-18 09:34:00,
2013-06-18 03:43:00,61.0,25.0,-100.00,NE,52,3.0,8.0,25,0.00,,,0.00,0.000000,,2013-06-18 09:43:00,
2013-06-18 03:53:00,61.0,25.0,-100.00,NE,52,3.0,8.0,25,0.00,,,0.00,0.000000,,2013-06-18 09:53:00,
2013-06-18 04:22:00,60.0,27.0,-100.00,North,356,3.0,8.0,28,0.00,,,0.00,0.000000,,2013-06-18 10:22:00,
2013-06-18 04:33:00,60.0,27.0,-100.00,North,356,3.0,8.0,28,0.00,,,0.00,0.000000,,2013-06-18 10:33:00,
2013-06-18 04:43:00,60.0,27.0,-100.00,North,356,3.0,8.0,28,0.00,,,0.00,0.000000,,2013-06-18 10:43:00,
2013-06-18 04:53:00,60.0,27.0,-100.00,North,356,3.0,8.0,28,0.00,,,0.00,0.000000,,2013-06-18 10:53:00,
2013-06-18 05:22:00,59.0,29.0,-100.00,East,93,2.0,5.0,32,-99.99,,,0.00,0.000000,,2013-06-18 11:22:00,
2013-06-18 05:32:00,59.0,29.0,-100.00,East,93,2.0,5.0,32,-99.99,,,0.00,0.000000,,2013-06-18 11:32:00,
2013-06-18 05:52:00,59.0,29.0,-100.00,East,93,2.0,5.0,32,-99.99,,,0.00,0.000000,,2013-06-18 11:52:00,
2013-06-18 06:22:00,58.0,32.0,-100.00,NE,44,4.0,8.0,37,-99.99,,,0.00,1.000000,,2013-06-18 12:22:00,
2013-06-18 06:33:00,58.0,32.0,-100.00,NE,44,4.0,8.0,37,-99.99,,,0.00,1.000000,,2013-06-18 12:33:00,
2013-06-18 07:22:00,60.0,39.0,-100.00,ENE,70,3.0,9.0,45,-99.99,,,0.00,18.000000,,2013-06-18 13:22:00,
2013-06-18 07:52:00,60.0,39.0,-100.00,ENE,70,3.0,9.0,45,-99.99,,,0.00,18.000000,,2013-06-18 13:52:00,
2013-06-18 08:22:00,65.0,38.0,-100.00,SE,136,4.0,7.0,37,0.00,,,0.00,178.000000,,2013-06-18 14:22:00,
2013-06-18 08:33:00,65.0,38.0,-100.00,SE,136,4.0,7.0,37,0.00,,,0.00,178.000000,,2013-06-18 14:33:00,
2013-06-18 08:43:00,65.0,38.0,-100.00,SE,136,4.0,7.0,37,0.00,,,0.00,178.000000,,2013-06-18 14:43:00,
2013-06-18 08:53:00,65.0,38.0,-100.00,SE,136,4.0,7.0,37,0.00,,,0.00,178.000000,,2013-06-18 14:53:00,
2013-06-18 09:22:00,68.0,39.0,-100.00,SE,141,7.0,10.0,34,0.00,,,0.00,433.000000,,2013-06-18 15:22:00,
2013-06-18 09:33:00,68.0,39.0,-100.00,SE,141,7.0,10.0,34,0.00,,,0.00,433.000000,,2013-06-18 15:33:00,
2013-06-18 09:43:00,68.0,39.0,-100.00,SE,141,7.0,10.0,34,0.00,,,0.00,433.000000,,2013-06-18 15:43:00,
2013-06-18 09:53:00,68.0,39.0,-100.00,SE,141,7.0,10.0,34,0.00,,,0.00,433.000000,,2013-06-18 15:53:00,
2013-06-18 10:22:00,72.0,43.0,-100.00,SE,142,5.0,11.0,35,0.00,,,0.00,632.000000,,2013-06-18 16:22:00,
2013-06-18 10:33:00,72.0,43.0,-100.00,SE,142,5.0,11.0,35,0.00,,,0.00,632.000000,,2013-06-18 16:33:00,
2013-06-18 10:43:00,72.0,43.0,-100.00,SE,142,5.0,11.0,35,0.00,,,0.00,632.000000,,2013-06-18 16:43:00,
2013-06-18 10:53:00,72.0,43.0,-100.00,SE,142,5.0,11.0,35,0.00,,,0.00,632.000000,,2013-06-18 16:53:00,
2013-06-18 11:22:00,71.0,43.0,-100.00,SW,235,4.0,13.0,36,0.00,,,0.00,593.000000,,2013-06-18 17:22:00,
2013-06-18 11:33:00,71.0,43.0,-100.00,SW,235,4.0,13.0,36,0.00,,,0.00,593.000000,,2013-06-18 17:33:00,
2013-06-18 11:43:00,71.0,43.0,-100.00,SW,235,4.0,13.0,36,0.00,,,0.00,593.000000,,2013-06-18 17:43:00,
2013-06-18 11:53:00,71.0,43.0,-100.00,SW,235,4.0,13.0,36,0.00,,,0.00,593.000000,,2013-06-18 17:53:00,
2013-06-18 12:22:00,76.0,41.0,-100.00,SE,131,8.0,16.0,28,0.00,,,0.00,863.000000,,2013-06-18 18:22:00,
2013-06-18 12:33:00,76.0,41.0,-100.00,SE,131,8.0,16.0,28,0.00,,,0.00,863.000000,,2013-06-18 18:33:00,
2013-06-18 12:42:00,76.0,41.0,-100.00,SE,131,8.0,16.0,28,0.00,,,0.00,863.000000,,2013-06-18 18:42:00,
2013-06-18 12:53:00,76.0,41.0,-100.00,SE,131,8.0,16.0,28,0.00,,,0.00,863.000000,,2013-06-18 18:53:00,
2013-06-18 13:22:00,78.0,39.0,-100.00,South,190,7.0,14.0,25,0.00,,,0.00,985.000000,,2013-06-18 19:22:00,
2013-06-18 13:33:00,78.0,39.0,-100.00,South,190,7.0,14.0,25,0.00,,,0.00,985.000000,,2013-06-18 19:33:00,
2013-06-18 13:43:00,78.0,39.0,-100.00,South,190,7.0,14.0,25,0.00,,,0.00,985.000000,,2013-06-18 19:43:00,
2013-06-18 13:52:00,78.0,39.0,-100.00,South,190,7.0,14.0,25,0.00,,,0.00,985.000000,,2013-06-18 19:52:00,
2013-06-18 14:23:00,81.0,33.0,-100.00,SW,223,9.0,18.0,18,0.00,,,0.00,1065.000000,,2013-06-18 20:23:00,
2013-06-18 14:33:00,81.0,33.0,-100.00,SW,223,9.0,18.0,18,0.00,,,0.00,1065.000000,,2013-06-18 20:33:00,
2013-06-18 14:43:00,81.0,33.0,-100.00,SW,223,9.0,18.0,18,0.00,,,0.00,1065.000000,,2013-06-18 20:43:00,
2013-06-18 14:52:00,81.0,33.0,-100.00,SW,223,9.0,18.0,18,0.00,,,0.00,1065.000000,,2013-06-18 20:52:00,
2013-06-18 15:23:00,81.0,31.0,-100.00,SSW,193,8.0,20.0,16,0.00,,,-99.99,999.000000,,2013-06-18 21:23:00,
2013-06-18 15:33:00,81.0,31.0,-100.00,SSW,193,8.0,20.0,16,0.00,,,-99.99,999.000000,,2013-06-18 21:33:00,
2013-06-18 15:43:00,81.0,31.0,-100.00,SSW,193,8.0,20.0,16,0.00,,,-99.99,999.000000,,2013-06-18 21:43:00,
2013-06-18 15:52:00,81.0,31.0,-100.00,SSW,193,8.0,20.0,16,0.00,,,-99.99,999.000000,,2013-06-18 21:52:00,
2013-06-18 16:22:00,80.0,34.0,-100.00,WSW,245,6.0,18.0,19,0.00,,,0.00,584.000000,,2013-06-18 22:22:00,
2013-06-18 16:34:00,80.0,34.0,-100.00,WSW,245,6.0,18.0,19,0.00,,,0.00,584.000000,,2013-06-18 22:34:00,
2013-06-18 16:43:00,80.0,34.0,-100.00,WSW,245,6.0,18.0,19,0.00,,,0.00,584.000000,,2013-06-18 22:43:00,
2013-06-18 16:53:00,80.0,34.0,-100.00,WSW,245,6.0,18.0,19,0.00,,,0.00,584.000000,,2013-06-18 22:53:00,
2013-06-18 17:23:00,80.0,31.0,-100.00,South,190,9.0,19.0,17,0.00,,,0.00,321.000000,,2013-06-18 23:23:00,
2013-06-18 17:36:00,80.0,31.0,-100.00,South,190,9.0,19.0,17,0.00,,,0.00,321.000000,,2013-06-18 23:36:00,
2013-06-18 17:45:00,80.0,31.0,-100.00,South,190,9.0,19.0,17,0.00,,,0.00,321.000000,,2013-06-18 23:45:00,
2013-06-18 17:53:00,80.0,31.0,-100.00,South,190,9.0,19.0,17,0.00,,,0.00,321.000000,,2013-06-18 23:53:00,
2013-06-18 19:53:00,81.0,-1.0,-100.00,SW,230,8.0,22.0,4,0.00,,,0.00,381.000000,,2013-06-19 01:53:00,
2013-06-18 20:21:00,79.0,2.0,-100.00,SW,234,5.0,19.0,5,0.00,,,0.00,173.000000,,2013-06-19 02:21:00,
2013-06-18 20:32:00,79.0,2.0,-100.00,SW,234,5.0,19.0,5,0.00,,,0.00,173.000000,,2013-06-19 02:32:00,
2013-06-18 20:42:00,79.0,2.0,-100.00,SW,234,5.0,19.0,5,0.00,,,0.00,173.000000,,2013-06-19 02:42:00,
2013-06-18 21:22:00,73.0,2.0,-100.00,NW,318,9.0,14.0,6,0.00,,,0.00,8.000000,,2013-06-19 03:22:00,